Epic Capri — 9HA2845 — position and weather

sailwx.info

Track history (hours):
 
Tides and Currents Weather Stations Pressure Air Temp Water Temp Dewpoint Dewpoint Depression Visibility Wind Speed Wind Dir Waves Ship Positions

Epic Capri

Last reported at 2015-May-24 00:28 UTC. Time now 2015-May-24 23:21 UTC.
Position N 40°24' W 009°10'.

Length 99 m; draft 5.4 m.

Type: Tanker. MMSI: 256325000.

Date/timePositionNaut miles runAvg speedWind from/ knotsBaromVisibWave heightAir tempDewpointWater temp
2015-May-24 00:28N 40°24' W 009°10'8 7.1
2015-May-23 23:17N 40°17' W 009°15'13 7.3
2015-May-23 21:33N 40°06' W 009°23'14 7.0
2015-May-23 19:33N 39°53' W 009°32'7 6.8
2015-May-23 18:33N 39°47' W 009°35'6 6.3
2015-May-23 17:33N 39°41' W 009°39'6 6.4
2015-May-23 16:32N 39°35' W 009°42'7 6.7
2015-May-23 15:33N 39°29' W 009°46'6 6.4
2015-May-23 14:33N 39°24' W 009°50'6 6.3
2015-May-23 13:33N 39°18' W 009°53'6 6.2
2015-May-23 12:33N 39°13' W 009°56'6 5.9
2015-May-23 11:33N 39°07' W 009°57'6 5.8
2015-May-23 10:33N 39°01' W 009°57'6 5.5
2015-May-23 09:33N 38°55' W 009°57'6 6.4
2015-May-23 08:33N 38°49' W 009°57'7 6.6
2015-May-23 07:33N 38°42' W 009°57'7 6.8
2015-May-23 06:33N 38°36' W 009°55'7 6.5
2015-May-23 05:33N 38°29' W 009°53'4 3.6
2015-May-23 04:33N 38°26' W 009°52'3 3.3
2015-May-23 03:33N 38°23' W 009°51'3 3.5
2015-May-23 02:33N 38°19' W 009°50'4 3.9
2015-May-23 01:33N 38°18' W 009°45'5 5.2
2015-May-23 00:33N 38°16' W 009°39'6 6.4
2015-May-22 23:33N 38°13' W 009°32'7 7.2
2015-May-22 22:33N 38°09' W 009°23'8 7.6
2015-May-22 21:33N 38°06' W 009°15'9 8.6
2015-May-22 20:33N 38°02' W 009°05'8 8.4
2015-May-22 19:33N 37°57' W 008°56'2 2.5
2015-May-22 18:33N 37°57' W 008°53'0 0.0
2015-May-22 17:33N 37°57' W 008°53'0 0.0
2015-May-22 16:33N 37°57' W 008°53'0 0.0
2015-May-22 15:33N 37°57' W 008°53'0 0.0
2015-May-22 14:33N 37°57' W 008°53'0 0.0
2015-May-22 13:30N 37°57' W 008°53'0 0.0
2015-May-22 12:33N 37°57' W 008°53'0 0.0
2015-May-22 11:30N 37°57' W 008°53'0 0.0
2015-May-22 10:33N 37°57' W 008°53'0 0.0
2015-May-22 09:33N 37°57' W 008°53'0 0.0
2015-May-22 08:33N 37°57' W 008°53'0 0.0
2015-May-22 07:33N 37°57' W 008°53'0 0.0
2015-May-22 06:33N 37°57' W 008°53'0 0.0
2015-May-22 05:33N 37°57' W 008°53'0 0.0
2015-May-22 04:33N 37°57' W 008°53'0 0.4
2015-May-22 03:32N 37°57' W 008°53'3 2.5
2015-May-22 02:32N 37°54' W 008°52'0 0.0
2015-May-22 01:32N 37°54' W 008°52'0 0.0
2015-May-22 00:32N 37°54' W 008°52'0 0.0
2015-May-21 23:32N 37°54' W 008°52'0 0.0
2015-May-21 22:32N 37°54' W 008°52'0 0.0
2015-May-21 21:29N 37°54' W 008°52'1 0.8
2015-May-21 20:33N 37°54' W 008°53'7 7.1
2015-May-21 19:33N 37°50' W 009°01'8 7.9
2015-May-21 18:33N 37°45' W 009°08'8 8.4
2015-May-21 17:33N 37°40' W 009°16'8 8.3
2015-May-21 16:33N 37°34' W 009°24'9 8.7
2015-May-21 15:33N 37°29' W 009°33'9 8.9
2015-May-21 14:33N 37°23' W 009°41'9 8.7
2015-May-21 13:33N 37°18' W 009°50'11 8.6
2015-May-21 12:19N 37°11' W 010°00'  
2015-May-15 06:20N 34°51' W 013°29'8 9.5
2015-May-15 05:30N 34°57' W 013°22'12 9.7
2015-May-15 04:18N 35°04' W 013°11'2210.0
2015-May-15 02:08N 35°17' W 012°50'17 9.7
2015-May-15 00:24N 35°28' W 012°34'59 9.6
2015-May-14 18:14N 36°06' W 011°38'73 9.4
2015-May-14 10:26N 36°53' W 010°27'9 9.4
2015-May-14 09:26N 36°59' W 010°19'9 9.5
2015-May-14 08:28N 37°05' W 010°10'11 9.8
2015-May-14 07:20N 37°12' W 009°59'7 8.8
2015-May-14 06:33N 37°16' W 009°52'10 9.8
2015-May-14 05:33N 37°22' W 009°42'10 9.8
2015-May-14 04:32N 37°28' W 009°33'9 9.2
2015-May-14 03:31N 37°34' W 009°24'10 9.5
2015-May-14 02:26N 37°40' W 009°13'9 9.8
2015-May-14 01:33N 37°46' W 009°05'9 9.5
2015-May-14 00:33N 37°52' W 008°56'  
Track history (hours):
 
Tides and Currents Weather Stations Pressure Air Temp Water Temp Dewpoint Dewpoint Depression Visibility Wind Speed Wind Dir Waves Ship Positions

Epic Capri

Last reported at 2015-May-24 00:28 UTC. Time now 2015-May-24 23:21 UTC.
Position N 40°24' W 009°10'.

Length 99 m; draft 5.4 m.

Type: Tanker. MMSI: 256325000.

Date/timePositionNaut miles runAvg speedWind from/ knotsBaromVisibWave heightAir tempDewpointWater temp
2015-May-24 00:28N 40°24' W 009°10'8 7.1
2015-May-23 23:17N 40°17' W 009°15'13 7.3
2015-May-23 21:33N 40°06' W 009°23'14 7.0
2015-May-23 19:33N 39°53' W 009°32'7 6.8
2015-May-23 18:33N 39°47' W 009°35'6 6.3
2015-May-23 17:33N 39°41' W 009°39'6 6.4
2015-May-23 16:32N 39°35' W 009°42'7 6.7
2015-May-23 15:33N 39°29' W 009°46'6 6.4
2015-May-23 14:33N 39°24' W 009°50'6 6.3
2015-May-23 13:33N 39°18' W 009°53'6 6.2
2015-May-23 12:33N 39°13' W 009°56'6 5.9
2015-May-23 11:33N 39°07' W 009°57'6 5.8
2015-May-23 10:33N 39°01' W 009°57'6 5.5
2015-May-23 09:33N 38°55' W 009°57'6 6.4
2015-May-23 08:33N 38°49' W 009°57'7 6.6
2015-May-23 07:33N 38°42' W 009°57'7 6.8
2015-May-23 06:33N 38°36' W 009°55'7 6.5
2015-May-23 05:33N 38°29' W 009°53'4 3.6
2015-May-23 04:33N 38°26' W 009°52'3 3.3
2015-May-23 03:33N 38°23' W 009°51'3 3.5
2015-May-23 02:33N 38°19' W 009°50'4 3.9
2015-May-23 01:33N 38°18' W 009°45'5 5.2
2015-May-23 00:33N 38°16' W 009°39'6 6.4
2015-May-22 23:33N 38°13' W 009°32'7 7.2
2015-May-22 22:33N 38°09' W 009°23'8 7.6
2015-May-22 21:33N 38°06' W 009°15'9 8.6
2015-May-22 20:33N 38°02' W 009°05'8 8.4
2015-May-22 19:33N 37°57' W 008°56'2 2.5
2015-May-22 18:33N 37°57' W 008°53'0 0.0
2015-May-22 17:33N 37°57' W 008°53'0 0.0
2015-May-22 16:33N 37°57' W 008°53'0 0.0
2015-May-22 15:33N 37°57' W 008°53'0 0.0
2015-May-22 14:33N 37°57' W 008°53'0 0.0
2015-May-22 13:30N 37°57' W 008°53'0 0.0
2015-May-22 12:33N 37°57' W 008°53'0 0.0
2015-May-22 11:30N 37°57' W 008°53'0 0.0
2015-May-22 10:33N 37°57' W 008°53'0 0.0
2015-May-22 09:33N 37°57' W 008°53'0 0.0
2015-May-22 08:33N 37°57' W 008°53'0 0.0
2015-May-22 07:33N 37°57' W 008°53'0 0.0
2015-May-22 06:33N 37°57' W 008°53'0 0.0
2015-May-22 05:33N 37°57' W 008°53'0 0.0
2015-May-22 04:33N 37°57' W 008°53'0 0.4
2015-May-22 03:32N 37°57' W 008°53'3 2.5
2015-May-22 02:32N 37°54' W 008°52'0 0.0
2015-May-22 01:32N 37°54' W 008°52'0 0.0
2015-May-22 00:32N 37°54' W 008°52'0 0.0
2015-May-21 23:32N 37°54' W 008°52'0 0.0
2015-May-21 22:32N 37°54' W 008°52'0 0.0
2015-May-21 21:29N 37°54' W 008°52'1 0.8
2015-May-21 20:33N 37°54' W 008°53'7 7.1
2015-May-21 19:33N 37°50' W 009°01'8 7.9
2015-May-21 18:33N 37°45' W 009°08'8 8.4
2015-May-21 17:33N 37°40' W 009°16'8 8.3
2015-May-21 16:33N 37°34' W 009°24'9 8.7
2015-May-21 15:33N 37°29' W 009°33'9 8.9
2015-May-21 14:33N 37°23' W 009°41'9 8.7
2015-May-21 13:33N 37°18' W 009°50'11 8.6
2015-May-21 12:19N 37°11' W 010°00'  
2015-May-15 06:20N 34°51' W 013°29'8 9.5
2015-May-15 05:30N 34°57' W 013°22'12 9.7
2015-May-15 04:18N 35°04' W 013°11'2210.0
2015-May-15 02:08N 35°17' W 012°50'17 9.7
2015-May-15 00:24N 35°28' W 012°34'59 9.6
2015-May-14 18:14N 36°06' W 011°38'73 9.4
2015-May-14 10:26N 36°53' W 010°27'9 9.4
2015-May-14 09:26N 36°59' W 010°19'9 9.5
2015-May-14 08:28N 37°05' W 010°10'11 9.8
2015-May-14 07:20N 37°12' W 009°59'7 8.8
2015-May-14 06:33N 37°16' W 009°52'10 9.8
2015-May-14 05:33N 37°22' W 009°42'10 9.8
2015-May-14 04:32N 37°28' W 009°33'9 9.2
2015-May-14 03:31N 37°34' W 009°24'10 9.5
2015-May-14 02:26N 37°40' W 009°13'9 9.8
2015-May-14 01:33N 37°46' W 009°05'9 9.5
2015-May-14 00:33N 37°52' W 008°56'  

Dump ship's entire track history